Weather History for KANW - March, 2013

Change the Weather History Date:

Tuesday, March 5, 2013

  Actual Average Record
Temperature  
Mean Temperature 24 °F -  
Max Temperature 32 °F 35 °F 66 °F (2005)
Min Temperature 15 °F 17 °F -5 °F (2003)
Degree Days  
Heating Degree Days 40    
Moisture  
Dew Point 11 °F    
Average Humidity 62    
Maximum Humidity 82    
Minimum Humidity 42    
Precipitation  
Precipitation 0.03 in - - ()
Sea Level Pressure  
Sea Level Pressure 30.25 in    
Wind  
Wind Speed 23 mph (NNW)    
Max Wind Speed 34 mph    
Max Gust Speed 48 mph    
Visibility 10 miles    
Events Snow , Thunderstorm    
Averages and records for this station are not official NWS values.
T = Trace of Precipitation, MM = Missing Value Source: NWS Daily Summary

Daily Weather History Graph

Daily Weather History Graph

Search for Another Location

Airport or City:

Trip Planner

Search our weather history database for the weather conditions in past years. The results will help you decide how hot, cold, wet, or windy it might be!

Date:

Astronomy

Mar. 05, 2013 Rise Set
Actual Time 7:08 AM CST 6:34 PM CST
Civil Twilight 6:40 AM CST 7:03 PM CST
Nautical Twilight 6:07 AM CST 7:35 PM CST
Astronomical Twilight 5:35 AM CST 8:08 PM CST
Moon 2:28 AM CST (3/5) 12:10 PM CST (3/5)
Length of Visible Light 12h 22m
Length of Day
11h 26m
Last Quarter, 40% of the Moon is Illuminated
Mar 5
Last Quarter
Mar 11
New
Mar 19
First Quarter
Mar 27
Full
Apr 2
Last Quarter

Hourly Weather History & Observations

Time (CST) Temp. Windchill Dew Point Humidity Pressure Visibility Wind Dir Wind Speed Gust Speed Precip Events Conditions
12:15 AM 21.2 °F 3.3 °F 10.2 °F 63% 30.08 in 10.0 mi NW 28.8 mph 40.3 mph N/A   Clear
12:35 AM 21.2 °F 4.2 °F 10.4 °F 63% 30.08 in 10.0 mi WNW 25.3 mph 39.1 mph N/A   Clear
12:55 AM 21.2 °F 3.9 °F 9.5 °F 61% 30.08 in 10.0 mi NW 26.5 mph 36.8 mph N/A   Clear
1:15 AM 21.4 °F 3.8 °F 10.9 °F 64% 30.08 in 10.0 mi NW 27.6 mph 40.3 mph N/A   Scattered Clouds
1:35 AM 21.2 °F 2.2 °F 10.8 °F 64% 30.09 in 10.0 mi NW 33.4 mph 40.3 mph N/A   Mostly Cloudy
1:55 AM 21.9 °F 4.8 °F 10.4 °F 61% 30.09 in 10.0 mi NW 26.5 mph 46.0 mph N/A   Mostly Cloudy
2:15 AM 21.9 °F 2.9 °F 10.0 °F 60% 30.10 in 10.0 mi NW 34.5 mph 44.9 mph N/A   Overcast
2:35 AM 21.7 °F 4.3 °F 9.9 °F 60% 30.11 in 10.0 mi NW 27.6 mph 48.3 mph N/A   Overcast
2:55 AM 21.0 °F 2.2 °F 9.5 °F 61% 30.11 in 10.0 mi NW 32.2 mph 43.7 mph N/A   Mostly Cloudy
3:15 AM 20.5 °F 2.0 °F 9.9 °F 64% 30.12 in 10.0 mi NW 29.9 mph 44.9 mph N/A   Scattered Clouds
3:35 AM 20.1 °F 1.2 °F 10.4 °F 66% 30.14 in 10.0 mi NW 31.1 mph 39.1 mph N/A   Clear
3:55 AM 19.8 °F 1.0 °F 10.2 °F 67% 30.14 in 10.0 mi NW 29.9 mph 36.8 mph N/A   Scattered Clouds
4:15 AM 19.4 °F 0.2 °F 10.0 °F 67% 30.15 in 10.0 mi NW 31.1 mph 40.3 mph N/A   Scattered Clouds
4:35 AM 19.4 °F 0.5 °F 9.9 °F 66% 30.16 in 10.0 mi NW 29.9 mph 40.3 mph N/A   Scattered Clouds
4:55 AM 19.4 °F 1.4 °F 9.5 °F 65% 30.17 in 10.0 mi NW 26.5 mph 38.0 mph N/A   Clear
5:15 AM 19.4 °F 1.1 °F 10.0 °F 67% 30.18 in 10.0 mi NW 27.6 mph 35.7 mph N/A   Mostly Cloudy
5:35 AM 19.0 °F 0.3 °F 9.5 °F 66% 30.20 in 10.0 mi NW 28.8 mph 35.7 mph N/A   Overcast
5:55 AM 18.5 °F -1.5 °F 9.5 °F 68% 30.21 in 10.0 mi NW 33.4 mph 39.1 mph N/A   Scattered Clouds
6:15 AM 18.3 °F -0.3 °F 9.5 °F 68% 30.22 in 10.0 mi NW 27.6 mph 34.5 mph N/A   Clear
6:35 AM 18.1 °F 0.4 °F 9.3 °F 68% 30.22 in 10.0 mi NW 24.2 mph 35.7 mph N/A   Clear
6:55 AM 17.6 °F -0.6 °F 10.4 °F 73% 30.23 in 10.0 mi NW 25.3 mph 38.0 mph N/A   Mostly Cloudy
7:15 AM 17.6 °F 0.1 °F 9.5 °F 71% 30.23 in 10.0 mi NW 23.0 mph 34.5 mph N/A   Mostly Cloudy
7:35 AM 17.6 °F -0.6 °F 9.5 °F 71% 30.24 in 10.0 mi NW 25.3 mph 34.5 mph N/A   Overcast
7:55 AM 17.4 °F -1.5 °F 9.5 °F 71% 30.25 in 7.0 mi NW 27.6 mph 35.7 mph N/A Snow Light Snow
8:15 AM 17.2 °F -2.7 °F 9.3 °F 71% 30.25 in 5.0 mi NW 31.1 mph 39.1 mph N/A Snow Light Snow
8:35 AM 17.2 °F -3.0 °F 9.5 °F 72% 30.25 in 5.0 mi NNW 32.2 mph 36.8 mph N/A Snow Light Snow
8:55 AM 17.4 °F -2.5 °F 9.0 °F 69% 30.27 in 10.0 mi NNW 31.1 mph 39.1 mph N/A Snow Light Snow
9:15 AM 17.6 °F -1.0 °F 9.1 °F 69% 30.27 in 10.0 mi NW 26.5 mph 34.5 mph N/A Snow Light Snow
9:35 AM 18.5 °F -0.1 °F 9.3 °F 67% 30.29 in 10.0 mi NNW 27.6 mph 33.4 mph N/A   Scattered Clouds
9:55 AM 19.4 °F 1.8 °F 9.5 °F 65% 30.29 in 10.0 mi NW 25.3 mph 29.9 mph N/A   Scattered Clouds
10:15 AM 20.7 °F 3.8 °F 9.9 °F 63% 30.29 in 10.0 mi NNW 24.2 mph 32.2 mph N/A   Scattered Clouds
10:35 AM 21.6 °F 6.5 °F 10.0 °F 61% 30.30 in 10.0 mi NW 19.6 mph 27.6 mph N/A   Scattered Clouds
10:55 AM 22.5 °F 6.5 °F 10.2 °F 59% 30.29 in 10.0 mi NW 23.0 mph 28.8 mph N/A   Scattered Clouds
11:15 AM 22.5 °F 6.5 °F 9.7 °F 58% 30.29 in 10.0 mi NW 23.0 mph 31.1 mph N/A   Clear
11:35 AM 23.9 °F 8.8 °F 10.0 °F 56% 30.29 in 10.0 mi NNW 21.9 mph 26.5 mph N/A   Clear
11:55 AM 25.2 °F 11.2 °F 10.8 °F 54% 30.30 in 10.0 mi NNW 19.6 mph 27.6 mph N/A   Clear
12:15 PM 26.1 °F 12.3 °F 10.8 °F 52% 30.30 in 10.0 mi NNW 19.6 mph 26.5 mph N/A   Clear
12:35 PM 27.5 °F 14.6 °F 11.3 °F 51% 30.30 in 10.0 mi NNW 18.4 mph - N/A   Clear
12:55 PM 27.9 °F 13.4 °F 11.1 °F 50% 30.30 in 10.0 mi NNW 24.2 mph 28.8 mph N/A   Clear
1:15 PM 29.7 °F 17.4 °F 11.5 °F 47% 30.30 in 10.0 mi NNW 18.4 mph 28.8 mph 0.03 in   Clear
1:35 PM - - - N/A% - - North - - N/A   Unknown
1:55 PM 29.7 °F 16.4 °F 11.1 °F 46% 30.29 in - NNW 21.9 mph 28.8 mph 0.03 in Thunderstorm Thunderstorm
2:15 PM 30.6 °F 17.9 °F 10.4 °F 43% 30.29 in 10.0 mi NNW 20.7 mph 25.3 mph N/A   Clear
2:35 PM 30.6 °F 18.2 °F 10.0 °F 42% 30.29 in 10.0 mi NNW 19.6 mph 25.3 mph N/A   Clear
2:55 PM 31.1 °F 19.7 °F 10.4 °F 42% 30.28 in 10.0 mi NW 17.3 mph 24.2 mph N/A   Clear
3:15 PM 31.1 °F 19.3 °F 10.4 °F 42% 30.28 in 10.0 mi North 18.4 mph 24.2 mph N/A   Clear
3:35 PM 32.0 °F 20.1 °F 11.1 °F 42% 30.29 in 10.0 mi NNW 19.6 mph 26.5 mph N/A   Clear
3:55 PM 31.8 °F 20.2 °F 10.9 °F 42% 30.28 in 10.0 mi NNW 18.4 mph - N/A   Clear
4:15 PM 31.5 °F 20.1 °F 11.1 °F 43% 30.29 in 10.0 mi North 17.3 mph - N/A   Clear
4:35 PM 30.7 °F 19.2 °F 11.3 °F 44% 30.29 in 10.0 mi NNW 17.3 mph 23.0 mph N/A   Clear
4:55 PM 31.1 °F 20.9 °F 11.7 °F 45% 30.29 in 10.0 mi North 13.8 mph - N/A   Clear
5:15 PM 31.5 °F 22.3 °F 12.6 °F 46% 30.29 in 10.0 mi NNW 11.5 mph - N/A   Clear
5:35 PM 30.7 °F 20.4 °F 12.0 °F 46% 30.30 in 10.0 mi North 13.8 mph - N/A   Clear
5:55 PM 30.0 °F 20.0 °F 12.4 °F 48% 30.30 in 10.0 mi NNW 12.7 mph - N/A   Clear
6:15 PM 28.9 °F 18.6 °F 12.9 °F 51% 30.30 in 10.0 mi North 12.7 mph - N/A   Clear
6:35 PM 27.0 °F 18.0 °F 13.1 °F 56% 30.31 in 10.0 mi North 9.2 mph - N/A   Clear
6:55 PM 25.0 °F 16.3 °F 13.5 °F 62% 30.31 in 10.0 mi North 8.1 mph - N/A   Clear
7:15 PM 23.7 °F 17.8 °F 14.4 °F 67% 30.31 in 10.0 mi North 4.6 mph - N/A   Clear
7:35 PM 23.0 °F 15.8 °F 14.2 °F 69% 30.31 in 10.0 mi North 5.8 mph - N/A   Clear
7:55 PM 22.5 °F 16.3 °F 14.7 °F 72% 30.31 in 10.0 mi North 4.6 mph - N/A   Clear
8:15 PM 21.6 °F 16.8 °F 14.2 °F 73% 30.31 in 10.0 mi NNE 3.5 mph - N/A   Clear
8:35 PM 21.9 °F 15.7 °F 14.2 °F 72% 30.31 in 10.0 mi NE 4.6 mph - N/A   Clear
8:55 PM 21.2 °F 16.4 °F 13.6 °F 73% 30.31 in 10.0 mi NNE 3.5 mph - N/A   Clear
9:15 PM 20.3 °F 12.5 °F 14.0 °F 77% 30.32 in 10.0 mi NNE 5.8 mph - N/A   Clear
9:35 PM 19.9 °F 14.9 °F 13.5 °F 76% 30.33 in 10.0 mi NE 3.5 mph - N/A   Clear
9:55 PM 18.5 °F - 12.6 °F 78% 30.32 in 10.0 mi Calm Calm - N/A   Clear
10:15 PM 19.0 °F 13.9 °F 13.1 °F 78% 30.33 in 10.0 mi East 3.5 mph - N/A   Clear
10:35 PM 17.8 °F 10.9 °F 12.0 °F 78% 30.32 in 10.0 mi ENE 4.6 mph - N/A   Clear
10:55 PM 17.6 °F - 12.4 °F 80% 30.33 in 10.0 mi Calm Calm - N/A   Clear
11:15 PM 18.5 °F 13.3 °F 13.1 °F 79% 30.33 in 10.0 mi SE 3.5 mph - N/A   Clear
11:35 PM 17.6 °F 12.3 °F 12.6 °F 81% 30.31 in 10.0 mi East 3.5 mph - N/A   Clear
11:55 PM 15.8 °F 8.6 °F 11.1 °F 82% 30.31 in 10.0 mi ESE 4.6 mph - N/A   Clear